createdAt,value
2023-05-10T00:00:18.739Z,534.00
2023-05-10T00:01:18.476Z,533.00
2023-05-10T00:02:18.510Z,531.00
2023-05-10T00:03:18.601Z,531.00
2023-05-10T00:04:18.743Z,528.00
2023-05-10T00:05:18.595Z,527.00
2023-05-10T00:06:18.624Z,525.00
2023-05-10T00:07:18.690Z,527.00
2023-05-10T00:08:18.724Z,525.00
2023-05-10T00:09:18.744Z,526.00
2023-05-10T00:10:18.902Z,529.00
2023-05-10T00:11:20.371Z,526.00
2023-05-10T00:12:18.854Z,524.00
2023-05-10T00:13:18.939Z,524.00
2023-05-10T00:14:18.879Z,525.00
2023-05-10T00:15:18.879Z,525.00
2023-05-10T00:16:18.898Z,527.00
2023-05-10T00:17:18.889Z,525.00
2023-05-10T00:18:18.900Z,522.00
2023-05-10T00:19:18.909Z,523.00
2023-05-10T00:20:19.167Z,524.00
2023-05-10T00:21:18.943Z,524.00
2023-05-10T00:22:18.963Z,524.00
2023-05-10T00:23:18.953Z,525.00
2023-05-10T00:24:18.971Z,525.00
2023-05-10T00:25:18.994Z,525.00
2023-05-10T00:26:19.007Z,521.00
2023-05-10T00:27:19.001Z,520.00
2023-05-10T00:28:19.044Z,522.00
2023-05-10T00:29:19.036Z,521.00
2023-05-10T00:30:19.291Z,521.00
2023-05-10T00:31:19.041Z,519.00
2023-05-10T00:32:19.209Z,519.00
2023-05-10T00:33:19.053Z,518.00
2023-05-10T00:34:19.763Z,517.00
2023-05-10T00:35:19.044Z,519.00
2023-05-10T00:36:19.050Z,520.00
2023-05-10T00:37:19.064Z,518.00
2023-05-10T00:38:19.082Z,514.00
2023-05-10T00:39:19.117Z,513.00
2023-05-10T00:40:19.266Z,515.00
2023-05-10T00:41:19.095Z,513.00
2023-05-10T00:42:19.092Z,517.00
2023-05-10T00:43:19.112Z,517.00
2023-05-10T00:44:19.109Z,517.00
2023-05-10T00:45:19.150Z,519.00
2023-05-10T00:46:19.185Z,521.00
2023-05-10T00:47:19.172Z,520.00
2023-05-10T00:48:19.225Z,519.00
2023-05-10T00:49:19.264Z,519.00
2023-05-10T00:50:19.326Z,520.00
2023-05-10T00:51:19.376Z,519.00
2023-05-10T00:52:19.420Z,517.00
2023-05-10T00:53:19.491Z,516.00
2023-05-10T00:54:19.519Z,514.00
2023-05-10T00:55:19.564Z,513.00
2023-05-10T00:56:19.613Z,514.00
2023-05-10T00:57:19.664Z,516.00
2023-05-10T00:58:19.717Z,515.00
2023-05-10T00:59:19.768Z,515.00
2023-05-10T01:00:19.813Z,516.00
2023-05-10T01:01:19.986Z,516.00
2023-05-10T01:02:20.002Z,515.00
2023-05-10T01:03:20.138Z,515.00
2023-05-10T01:04:20.024Z,515.00
2023-05-10T01:05:20.125Z,518.00
2023-05-10T01:06:20.137Z,518.00
2023-05-10T01:07:20.178Z,518.00
2023-05-10T01:08:20.246Z,518.00
2023-05-10T01:09:20.283Z,516.00
2023-05-10T01:10:20.332Z,513.00
2023-05-10T01:11:20.394Z,514.00
2023-05-10T01:12:20.505Z,513.00
2023-05-10T01:13:20.551Z,513.00
2023-05-10T01:14:20.547Z,517.00
2023-05-10T01:15:20.604Z,516.00
2023-05-10T01:16:20.714Z,515.00
2023-05-10T01:17:20.753Z,513.00
2023-05-10T01:18:20.764Z,513.00
2023-05-10T01:19:20.807Z,512.00
2023-05-10T01:20:20.859Z,513.00
2023-05-10T01:21:20.915Z,511.00
2023-05-10T01:22:20.978Z,512.00
2023-05-10T01:23:21.021Z,510.00
2023-05-10T01:24:21.068Z,509.00
2023-05-10T01:25:21.119Z,513.00
2023-05-10T01:26:21.169Z,516.00
2023-05-10T01:27:21.214Z,518.00
2023-05-10T01:28:21.265Z,518.00
2023-05-10T01:29:21.314Z,520.00
2023-05-10T01:31:20.456Z,521.00
2023-05-10T01:32:21.464Z,520.00
2023-05-10T01:33:21.573Z,521.00
2023-05-10T01:34:21.570Z,521.00
2023-05-10T01:35:21.613Z,522.00
2023-05-10T01:36:21.672Z,521.00
2023-05-10T01:37:21.731Z,518.00
2023-05-10T01:38:21.779Z,515.00
2023-05-10T01:39:21.831Z,515.00
2023-05-10T01:40:21.885Z,514.00
2023-05-10T01:41:21.952Z,510.00
2023-05-10T01:42:21.978Z,511.00
2023-05-10T01:43:22.032Z,512.00
2023-05-10T01:44:22.090Z,513.00
2023-05-10T01:45:22.138Z,511.00
2023-05-10T01:46:22.218Z,511.00
2023-05-10T01:47:22.252Z,509.00
2023-05-10T01:48:22.309Z,510.00
2023-05-10T01:49:22.392Z,513.00
2023-05-10T01:50:22.422Z,509.00
2023-05-10T01:51:22.461Z,509.00
2023-05-10T01:52:22.554Z,509.00
2023-05-10T01:53:22.586Z,511.00
2023-05-10T01:54:22.670Z,513.00
2023-05-10T01:55:22.676Z,515.00
2023-05-10T01:56:22.711Z,516.00
2023-05-10T01:57:22.766Z,513.00
2023-05-10T01:58:22.811Z,513.00
2023-05-10T01:59:22.871Z,512.00
2023-05-10T02:00:22.920Z,513.00
2023-05-10T02:01:23.036Z,511.00
2023-05-10T02:02:23.048Z,510.00
2023-05-10T02:03:23.128Z,513.00
2023-05-10T02:04:23.149Z,514.00
2023-05-10T02:05:23.223Z,513.00
2023-05-10T02:06:23.300Z,513.00
2023-05-10T02:07:23.296Z,513.00
2023-05-10T02:08:23.367Z,512.00
2023-05-10T02:09:23.404Z,511.00
2023-05-10T02:10:23.463Z,512.00
2023-05-10T02:11:23.530Z,511.00
2023-05-10T02:12:23.578Z,512.00
2023-05-10T02:13:23.675Z,514.00
2023-05-10T02:14:23.674Z,510.00
2023-05-10T02:15:23.729Z,510.00
2023-05-10T02:16:23.856Z,511.00
2023-05-10T02:17:23.853Z,511.00
2023-05-10T02:18:23.870Z,509.00
2023-05-10T02:19:23.930Z,513.00
2023-05-10T02:20:23.975Z,515.00
2023-05-10T02:21:24.066Z,512.00
2023-05-10T02:22:24.085Z,512.00
2023-05-10T02:23:24.149Z,514.00
2023-05-10T02:24:24.187Z,512.00
2023-05-10T02:25:24.260Z,512.00
2023-05-10T02:26:24.301Z,512.00
2023-05-10T02:27:24.356Z,515.00
2023-05-10T02:28:24.397Z,513.00
2023-05-10T02:29:24.444Z,511.00
2023-05-10T02:30:24.498Z,511.00
2023-05-10T02:31:24.551Z,512.00
2023-05-10T02:32:24.638Z,512.00
2023-05-10T02:33:24.655Z,509.00
2023-05-10T02:34:24.700Z,509.00
2023-05-10T02:35:24.809Z,509.00
2023-05-10T02:36:24.811Z,510.00
2023-05-10T02:37:24.981Z,512.00
2023-05-10T02:38:24.927Z,509.00
2023-05-10T02:39:24.969Z,509.00
2023-05-10T02:40:26.801Z,510.00
2023-05-10T02:41:25.033Z,511.00
2023-05-10T02:42:25.036Z,513.00
2023-05-10T02:43:25.048Z,515.00
2023-05-10T02:44:25.067Z,516.00
2023-05-10T02:45:25.071Z,515.00
2023-05-10T02:46:25.113Z,518.00
2023-05-10T02:47:25.065Z,516.00
2023-05-10T02:48:25.072Z,515.00
2023-05-10T02:49:25.088Z,516.00
2023-05-10T02:50:25.091Z,516.00
2023-05-10T02:51:25.103Z,516.00
2023-05-10T02:52:25.134Z,515.00
2023-05-10T02:53:25.146Z,517.00
2023-05-10T02:54:25.129Z,517.00
2023-05-10T02:55:25.140Z,517.00
2023-05-10T02:56:25.139Z,518.00
2023-05-10T02:57:25.153Z,516.00
2023-05-10T02:58:25.156Z,517.00
2023-05-10T02:59:25.182Z,517.00
2023-05-10T03:00:25.168Z,515.00
2023-05-10T03:01:25.197Z,517.00
2023-05-10T03:02:25.246Z,517.00
2023-05-10T03:03:25.203Z,511.00
2023-05-10T03:04:25.286Z,512.00
2023-05-10T03:05:25.216Z,510.00
2023-05-10T03:06:25.214Z,510.00
2023-05-10T03:07:25.240Z,506.00
2023-05-10T03:08:25.221Z,505.00
2023-05-10T03:09:25.247Z,505.00
2023-05-10T03:10:25.224Z,509.00
2023-05-10T03:11:25.245Z,511.00
2023-05-10T03:12:25.276Z,510.00
2023-05-10T03:13:25.367Z,513.00
2023-05-10T03:14:25.392Z,510.00
2023-05-10T03:15:25.467Z,511.00
2023-05-10T03:16:25.543Z,510.00
2023-05-10T03:17:25.620Z,508.00
2023-05-10T03:18:25.610Z,513.00
2023-05-10T03:19:25.679Z,514.00
2023-05-10T03:20:25.717Z,516.00
2023-05-10T03:21:25.770Z,517.00
2023-05-10T03:22:25.842Z,517.00
2023-05-10T03:23:25.887Z,519.00
2023-05-10T03:24:25.960Z,517.00
2023-05-10T03:25:26.032Z,513.00
2023-05-10T03:26:26.076Z,511.00
2023-05-10T03:27:26.135Z,511.00
2023-05-10T03:28:26.180Z,514.00
2023-05-10T03:29:26.230Z,513.00
2023-05-10T03:30:26.307Z,514.00
2023-05-10T03:31:26.399Z,512.00
2023-05-10T03:32:26.441Z,510.00
2023-05-10T03:33:26.461Z,510.00
2023-05-10T03:34:26.519Z,510.00
2023-05-10T03:35:26.577Z,511.00
2023-05-10T03:36:26.627Z,511.00
2023-05-10T03:37:26.694Z,511.00
2023-05-10T03:38:28.366Z,511.00
2023-05-10T03:39:26.749Z,510.00
2023-05-10T03:40:26.760Z,511.00
2023-05-10T03:41:26.786Z,512.00
2023-05-10T03:42:26.772Z,512.00
2023-05-10T03:43:26.782Z,509.00
2023-05-10T03:44:26.791Z,510.00
2023-05-10T03:45:26.804Z,510.00
2023-05-10T03:46:26.860Z,510.00
2023-05-10T03:47:26.813Z,512.00
2023-05-10T03:48:26.797Z,511.00
2023-05-10T03:49:26.807Z,512.00
2023-05-10T03:50:26.801Z,512.00
2023-05-10T03:51:26.816Z,515.00
2023-05-10T03:52:26.818Z,516.00
2023-05-10T03:53:26.818Z,515.00
2023-05-10T03:54:26.839Z,516.00
2023-05-10T03:55:26.826Z,520.00
2023-05-10T03:56:26.882Z,520.00
2023-05-10T03:57:26.992Z,521.00
2023-05-10T03:58:27.010Z,521.00
2023-05-10T03:59:27.076Z,522.00
2023-05-10T04:00:27.130Z,522.00
2023-05-10T04:01:27.192Z,520.00
2023-05-10T04:02:27.351Z,518.00
2023-05-10T04:03:27.349Z,513.00
2023-05-10T04:04:27.374Z,510.00
2023-05-10T04:05:27.439Z,514.00
2023-05-10T04:06:27.550Z,514.00
2023-05-10T04:07:27.571Z,518.00
2023-05-10T04:08:27.620Z,521.00
2023-05-10T04:09:27.676Z,524.00
2023-05-10T04:10:27.732Z,524.00
2023-05-10T04:11:27.796Z,523.00
2023-05-10T04:12:27.853Z,519.00
2023-05-10T04:13:28.006Z,519.00
2023-05-10T04:14:27.984Z,520.00
2023-05-10T04:15:28.059Z,519.00
2023-05-10T04:16:28.137Z,517.00
2023-05-10T04:17:28.191Z,518.00
2023-05-10T04:18:28.223Z,516.00
2023-05-10T04:19:28.266Z,515.00
2023-05-10T04:20:28.326Z,516.00
2023-05-10T04:21:28.404Z,515.00
2023-05-10T04:22:28.448Z,514.00
2023-05-10T04:23:28.499Z,511.00
2023-05-10T04:24:28.561Z,512.00
2023-05-10T04:25:28.616Z,514.00
2023-05-10T04:26:28.679Z,515.00
2023-05-10T04:27:28.739Z,517.00
2023-05-10T04:28:28.835Z,517.00
2023-05-10T04:29:28.890Z,512.00
2023-05-10T04:30:28.907Z,514.00
2023-05-10T04:31:29.074Z,514.00
2023-05-10T04:32:29.074Z,514.00
2023-05-10T04:33:29.124Z,512.00
2023-05-10T04:34:29.166Z,513.00
2023-05-10T04:35:29.206Z,514.00
2023-05-10T04:36:29.299Z,516.00
2023-05-10T04:37:29.325Z,517.00
2023-05-10T04:38:29.387Z,517.00
2023-05-10T04:39:29.441Z,518.00
2023-05-10T04:40:29.504Z,519.00
2023-05-10T04:41:29.623Z,518.00
2023-05-10T04:42:29.628Z,519.00
2023-05-10T04:43:29.685Z,521.00
2023-05-10T04:44:29.757Z,523.00
2023-05-10T04:45:29.842Z,525.00
2023-05-10T04:46:29.981Z,525.00
2023-05-10T04:47:29.961Z,524.00
2023-05-10T04:48:30.004Z,522.00
2023-05-10T04:49:30.077Z,522.00
2023-05-10T04:50:30.134Z,523.00
2023-05-10T04:51:30.200Z,524.00
2023-05-10T04:52:30.297Z,522.00
2023-05-10T04:53:30.328Z,522.00
2023-05-10T04:54:30.404Z,523.00
2023-05-10T04:55:30.460Z,522.00
2023-05-10T04:56:30.514Z,521.00
2023-05-10T04:57:30.594Z,524.00
2023-05-10T04:58:30.644Z,524.00
2023-05-10T04:59:30.707Z,525.00
2023-05-10T05:00:30.764Z,522.00
2023-05-10T05:01:30.898Z,523.00
2023-05-10T05:02:30.981Z,527.00
2023-05-10T05:03:31.040Z,528.00
2023-05-10T05:04:31.055Z,528.00
2023-05-10T05:05:31.072Z,527.00
2023-05-10T05:06:31.137Z,528.00
2023-05-10T05:07:31.187Z,526.00
2023-05-10T05:08:31.250Z,523.00
2023-05-10T05:09:31.322Z,523.00
2023-05-10T05:10:31.384Z,522.00
2023-05-10T05:11:31.451Z,524.00
2023-05-10T05:12:31.507Z,524.00
2023-05-10T05:13:31.599Z,522.00
2023-05-10T05:14:31.627Z,520.00
2023-05-10T05:15:31.688Z,520.00
2023-05-10T05:16:31.882Z,521.00
2023-05-10T05:17:31.886Z,519.00
2023-05-10T05:18:31.873Z,517.00
2023-05-10T05:19:32.383Z,520.00
2023-05-10T05:20:32.386Z,523.00
2023-05-10T05:21:32.052Z,525.00
2023-05-10T05:22:32.113Z,526.00
2023-05-10T05:23:32.191Z,527.00
2023-05-10T05:24:32.238Z,530.00
2023-05-10T05:25:32.305Z,531.00
2023-05-10T05:26:32.367Z,530.00
2023-05-10T05:27:32.423Z,531.00
2023-05-10T05:28:32.473Z,533.00
2023-05-10T05:29:32.524Z,535.00
2023-05-10T05:30:32.583Z,539.00
2023-05-10T05:31:32.695Z,543.00
2023-05-10T05:32:32.782Z,544.00
2023-05-10T05:33:32.776Z,546.00
2023-05-10T05:34:32.815Z,549.00
2023-05-10T05:35:32.878Z,551.00
2023-05-10T05:36:32.931Z,554.00
2023-05-10T05:37:32.982Z,556.00
2023-05-10T05:38:33.039Z,559.00
2023-05-10T05:39:33.094Z,564.00
2023-05-10T05:40:33.138Z,568.00
2023-05-10T05:41:33.203Z,569.00
2023-05-10T05:42:33.261Z,570.00
2023-05-10T05:43:33.665Z,576.00
2023-05-10T05:44:33.383Z,580.00
2023-05-10T05:45:33.451Z,582.00
2023-05-10T05:46:33.474Z,585.00
2023-05-10T05:47:33.564Z,587.00
2023-05-10T05:48:33.595Z,588.00
2023-05-10T05:49:33.912Z,586.00
2023-05-10T05:50:33.886Z,586.00
2023-05-10T05:51:33.727Z,589.00
2023-05-10T05:52:33.783Z,593.00
2023-05-10T05:53:33.830Z,615.00
2023-05-10T05:54:33.898Z,648.00
2023-05-10T05:55:33.920Z,651.00
2023-05-10T05:56:33.966Z,651.00
2023-05-10T05:57:33.995Z,656.00
2023-05-10T05:58:34.412Z,668.00
2023-05-10T05:59:34.389Z,680.00
2023-05-10T06:00:34.130Z,691.00
2023-05-10T06:01:34.144Z,702.00
2023-05-10T06:02:34.317Z,712.00
2023-05-10T06:03:34.245Z,725.00
2023-05-10T06:04:34.446Z,754.00
2023-05-10T06:05:34.275Z,758.00
2023-05-10T06:06:34.271Z,776.00
2023-05-10T06:07:34.394Z,809.00
2023-05-10T06:08:34.446Z,830.00
2023-05-10T06:09:34.340Z,888.00
2023-05-10T06:10:34.372Z,908.00
2023-05-10T06:11:34.374Z,922.00
2023-05-10T06:12:34.393Z,929.00
2023-05-10T06:13:34.543Z,939.00
2023-05-10T06:14:35.370Z,950.00
2023-05-10T06:15:34.376Z,970.00
2023-05-10T06:16:34.457Z,996.00
2023-05-10T06:17:34.399Z,1008.00
2023-05-10T06:18:34.365Z,1022.00
2023-05-10T06:19:34.438Z,1038.00
2023-05-10T06:20:34.378Z,1052.00
2023-05-10T06:21:34.400Z,1070.00
2023-05-10T06:22:34.402Z,1086.00
2023-05-10T06:23:34.393Z,1099.00
2023-05-10T06:24:34.904Z,1106.00
2023-05-10T06:25:34.448Z,1119.00
2023-05-10T06:26:34.475Z,1136.00
2023-05-10T06:27:34.497Z,1145.00
2023-05-10T06:28:34.514Z,1155.00
2023-05-10T06:29:34.908Z,1173.00
2023-05-10T06:30:34.600Z,1196.00
2023-05-10T06:31:34.705Z,1214.00
2023-05-10T06:32:34.743Z,1224.00
2023-05-10T06:33:34.742Z,1234.00
2023-05-10T06:34:34.905Z,1242.00
2023-05-10T06:35:34.882Z,1259.00
2023-05-10T06:36:35.958Z,1282.00
2023-05-10T06:37:35.028Z,1297.00
2023-05-10T06:38:35.406Z,1305.00
2023-05-10T06:39:35.143Z,1316.00
2023-05-10T06:40:35.213Z,1330.00
2023-05-10T06:41:35.280Z,1342.00
2023-05-10T06:42:35.328Z,1360.00
2023-05-10T06:43:35.408Z,1379.00
2023-05-10T06:44:35.920Z,1388.00
2023-05-10T06:45:35.517Z,1416.00
2023-05-10T06:46:35.592Z,1425.00
2023-05-10T06:47:38.698Z,1423.00
2023-05-10T06:48:35.634Z,1419.00
2023-05-10T06:49:35.919Z,1423.00
2023-05-10T06:50:35.931Z,1428.00
2023-05-10T06:51:35.638Z,1429.00
2023-05-10T06:52:35.643Z,1430.00
2023-05-10T06:53:35.682Z,1425.00
2023-05-10T06:54:35.925Z,1425.00
2023-05-10T06:55:35.644Z,1424.00
2023-05-10T06:56:36.647Z,1420.00
2023-05-10T06:57:35.645Z,1417.00
2023-05-10T06:58:51.539Z,1415.00
2023-05-10T06:59:35.745Z,1418.00
2023-05-10T07:00:38.898Z,1416.00
2023-05-10T07:01:35.756Z,1414.00
2023-05-10T07:02:35.677Z,1410.00
2023-05-10T07:03:35.658Z,1405.00
2023-05-10T07:04:35.960Z,1399.00
2023-05-10T07:05:35.878Z,1394.00
2023-05-10T07:06:35.662Z,1389.00
2023-05-10T07:07:35.686Z,1388.00
2023-05-10T07:08:35.668Z,1384.00
2023-05-10T07:09:36.005Z,1385.00
2023-05-10T07:10:35.665Z,1386.00
2023-05-10T07:11:36.679Z,1385.00
2023-05-10T07:12:35.808Z,1385.00
2023-05-10T07:13:35.721Z,1386.00
2023-05-10T07:14:35.680Z,1387.00
2023-05-10T07:15:35.685Z,1388.00
2023-05-10T07:16:35.928Z,1387.00
2023-05-10T07:17:35.790Z,1384.00
2023-05-10T07:18:35.801Z,1383.00
2023-05-10T07:19:35.732Z,1380.00
2023-05-10T07:20:35.724Z,1378.00
2023-05-10T07:21:35.792Z,1371.00
2023-05-10T07:22:35.739Z,1369.00
2023-05-10T07:23:35.754Z,1370.00
2023-05-10T07:24:35.764Z,1372.00
2023-05-10T07:25:35.823Z,1369.00
2023-05-10T07:26:35.927Z,1366.00
2023-05-10T07:27:35.788Z,1363.00
2023-05-10T07:28:35.945Z,1360.00
2023-05-10T07:29:35.786Z,1358.00
2023-05-10T07:30:35.824Z,1355.00
2023-05-10T07:31:35.811Z,1357.00
2023-05-10T07:32:36.044Z,1354.00
2023-05-10T07:33:35.827Z,1357.00
2023-05-10T07:34:35.963Z,1358.00
2023-05-10T07:35:35.853Z,1355.00
2023-05-10T07:36:35.865Z,1357.00
2023-05-10T07:37:35.879Z,1355.00
2023-05-10T07:38:35.853Z,1339.00
2023-05-10T07:39:36.079Z,1345.00
2023-05-10T07:40:35.916Z,1356.00
2023-05-10T07:41:36.221Z,1361.00
2023-05-10T07:42:35.925Z,1391.00
2023-05-10T07:43:35.917Z,1414.00
2023-05-10T07:44:35.971Z,1417.00
2023-05-10T07:45:35.947Z,1426.00
2023-05-10T07:46:35.955Z,1434.00
2023-05-10T07:47:35.958Z,1443.00
2023-05-10T07:48:35.970Z,1461.00
2023-05-10T07:49:35.960Z,1481.00
2023-05-10T07:50:35.965Z,1501.00
2023-05-10T07:51:35.967Z,1535.00
2023-05-10T07:52:36.388Z,1569.00
2023-05-10T07:53:35.996Z,1528.00
2023-05-10T07:54:36.454Z,1510.00
2023-05-10T07:55:36.012Z,1508.00
2023-05-10T07:56:39.255Z,1512.00
2023-05-10T07:57:36.027Z,1513.00
2023-05-10T07:58:37.059Z,1517.00
2023-05-10T07:59:36.459Z,1501.00
2023-05-10T08:00:36.106Z,1507.00
2023-05-10T08:01:36.448Z,1513.00
2023-05-10T08:02:36.301Z,1511.00
2023-05-10T08:03:36.233Z,1514.00
2023-05-10T08:04:36.228Z,1516.00
2023-05-10T08:05:36.118Z,1519.00
2023-05-10T08:06:36.441Z,1519.00
2023-05-10T08:07:36.131Z,1518.00
2023-05-10T08:08:36.132Z,1517.00
2023-05-10T08:09:36.145Z,1516.00
2023-05-10T08:10:36.156Z,1513.00
2023-05-10T08:11:36.164Z,1505.00
2023-05-10T08:12:36.185Z,1503.00
2023-05-10T08:13:36.166Z,1503.00
2023-05-10T08:14:36.166Z,1505.00
2023-05-10T08:15:36.245Z,1504.00
2023-05-10T08:16:36.180Z,1502.00
2023-05-10T08:17:36.211Z,1502.00
2023-05-10T08:18:36.202Z,1500.00
2023-05-10T08:19:36.213Z,1498.00
2023-05-10T08:20:36.184Z,1493.00
2023-05-10T08:21:36.189Z,1488.00
2023-05-10T08:22:36.210Z,1490.00
2023-05-10T08:23:36.201Z,1490.00
2023-05-10T08:24:36.209Z,1494.00
2023-05-10T08:25:36.969Z,1494.00
2023-05-10T08:26:36.182Z,1493.00
2023-05-10T08:27:36.245Z,1491.00
2023-05-10T08:28:36.212Z,1487.00
2023-05-10T08:29:48.937Z,1480.00
2023-05-10T08:30:36.195Z,1480.00
2023-05-10T08:31:36.262Z,1484.00
2023-05-10T08:32:36.229Z,1481.00
2023-05-10T08:33:36.201Z,1480.00
2023-05-10T08:34:36.207Z,1479.00
2023-05-10T08:35:36.445Z,1478.00
2023-05-10T08:36:36.209Z,1477.00
2023-05-10T08:37:36.244Z,1474.00
2023-05-10T08:38:36.228Z,1471.00
2023-05-10T08:39:36.481Z,1473.00
2023-05-10T08:40:43.703Z,1472.00
2023-05-10T08:41:36.502Z,1471.00
2023-05-10T08:42:37.218Z,1472.00
2023-05-10T08:43:36.246Z,1465.00
2023-05-10T08:44:36.290Z,1461.00
2023-05-10T08:45:37.531Z,1465.00
2023-05-10T08:46:36.324Z,1465.00
2023-05-10T08:47:36.311Z,1464.00
2023-05-10T08:48:36.261Z,1465.00
2023-05-10T08:49:36.268Z,1463.00
2023-05-10T08:50:36.452Z,1457.00
2023-05-10T08:51:36.277Z,1454.00
2023-05-10T08:52:36.301Z,1452.00
2023-05-10T08:53:36.328Z,1446.00
2023-05-10T08:54:36.499Z,1447.00
2023-05-10T08:55:36.371Z,1446.00
2023-05-10T08:56:36.399Z,1445.00
2023-05-10T08:57:36.421Z,1443.00
2023-05-10T08:58:36.457Z,1440.00
2023-05-10T08:59:36.466Z,1437.00
2023-05-10T09:00:36.523Z,1435.00
2023-05-10T09:01:36.505Z,1434.00
2023-05-10T09:02:36.556Z,1433.00
2023-05-10T09:03:36.577Z,1436.00
2023-05-10T09:04:37.062Z,1436.00
2023-05-10T09:05:36.894Z,1434.00
2023-05-10T09:06:36.615Z,1436.00
2023-05-10T09:07:36.664Z,1437.00
2023-05-10T09:08:36.671Z,1432.00
2023-05-10T09:09:36.970Z,1432.00
2023-05-10T09:10:36.713Z,1431.00
2023-05-10T09:11:36.743Z,1431.00
2023-05-10T09:12:36.791Z,1429.00
2023-05-10T09:13:36.788Z,1432.00
2023-05-10T09:14:37.433Z,1431.00
2023-05-10T09:15:36.967Z,1434.00
2023-05-10T09:16:36.936Z,1429.00
2023-05-10T09:17:36.919Z,1429.00
2023-05-10T09:18:36.936Z,1427.00
2023-05-10T09:19:36.936Z,1424.00
2023-05-10T09:20:37.465Z,1428.00
2023-05-10T09:21:37.092Z,1427.00
2023-05-10T09:22:37.035Z,1428.00
2023-05-10T09:23:37.041Z,1427.00
2023-05-10T09:24:37.067Z,1421.00
2023-05-10T09:25:37.471Z,1419.00
2023-05-10T09:26:37.189Z,1422.00
2023-05-10T09:27:37.162Z,1420.00
2023-05-10T09:28:37.167Z,1417.00
2023-05-10T09:29:37.494Z,1420.00
2023-05-10T09:30:37.306Z,1422.00
2023-05-10T09:31:38.326Z,1408.00
2023-05-10T09:32:37.608Z,1224.00
2023-05-10T09:33:40.549Z,1036.00
2023-05-10T09:34:37.469Z,1033.00
2023-05-10T09:35:38.473Z,1150.00
2023-05-10T09:36:37.437Z,1157.00
2023-05-10T09:37:37.370Z,1020.00
2023-05-10T09:38:37.476Z,996.00
2023-05-10T09:39:37.394Z,885.00
2023-05-10T09:40:37.397Z,841.00
2023-05-10T09:41:37.400Z,790.00
2023-05-10T09:42:37.398Z,711.00
2023-05-10T09:43:37.476Z,692.00
2023-05-10T09:44:37.475Z,686.00
2023-05-10T09:45:39.117Z,693.00
2023-05-10T09:46:37.670Z,705.00
2023-05-10T09:47:37.553Z,789.00
2023-05-10T09:48:37.594Z,945.00
2023-05-10T09:49:37.979Z,968.00
2023-05-10T09:50:37.585Z,979.00
2023-05-10T09:51:37.662Z,990.00
2023-05-10T09:52:37.568Z,1025.00
2023-05-10T09:53:37.980Z,1071.00
2023-05-10T09:54:37.644Z,1093.00
2023-05-10T09:55:37.591Z,1108.00
2023-05-10T09:56:38.015Z,1122.00
2023-05-10T09:57:37.589Z,1143.00
2023-05-10T09:58:37.586Z,1192.00
2023-05-10T09:59:37.599Z,1218.00
2023-05-10T10:00:37.990Z,1227.00
2023-05-10T10:01:37.798Z,1247.00
2023-05-10T10:02:37.665Z,1273.00
2023-05-10T10:03:37.618Z,1286.00
2023-05-10T10:04:37.781Z,1337.00
2023-05-10T10:05:37.997Z,1359.00
2023-05-10T10:06:37.631Z,1370.00
2023-05-10T10:07:37.644Z,1386.00
2023-05-10T10:08:37.636Z,1406.00
2023-05-10T10:09:37.637Z,1432.00
2023-05-10T10:10:37.998Z,1452.00
2023-05-10T10:11:37.650Z,1468.00
2023-05-10T10:12:37.655Z,1486.00
2023-05-10T10:13:37.929Z,1498.00
2023-05-10T10:14:37.671Z,1507.00
2023-05-10T10:15:38.016Z,1516.00
2023-05-10T10:16:43.688Z,1541.00
2023-05-10T10:17:37.785Z,1603.00
2023-05-10T10:18:38.046Z,1621.00
2023-05-10T10:19:38.293Z,1634.00
2023-05-10T10:20:38.028Z,1648.00
2023-05-10T10:21:37.758Z,1662.00
2023-05-10T10:22:37.761Z,1683.00
2023-05-10T10:23:37.781Z,1700.00
2023-05-10T10:24:37.759Z,1715.00
2023-05-10T10:25:37.996Z,1738.00
2023-05-10T10:26:38.782Z,1753.00
2023-05-10T10:27:37.769Z,1775.00
2023-05-10T10:28:37.771Z,1800.00
2023-05-10T10:29:37.785Z,1817.00
2023-05-10T10:30:37.995Z,1833.00
2023-05-10T10:31:37.883Z,1841.00
2023-05-10T10:32:37.756Z,1847.00
2023-05-10T10:33:37.810Z,1863.00
2023-05-10T10:34:37.773Z,1866.00
2023-05-10T10:35:37.998Z,1864.00
2023-05-10T10:36:37.834Z,1874.00
2023-05-10T10:37:37.760Z,1882.00
2023-05-10T10:38:37.770Z,1892.00
2023-05-10T10:39:38.086Z,1911.00
2023-05-10T10:40:37.778Z,1937.00
2023-05-10T10:41:38.013Z,1956.00
2023-05-10T10:42:37.839Z,1971.00
2023-05-10T10:43:38.878Z,1984.00
2023-05-10T10:44:37.908Z,1999.00
2023-05-10T10:45:37.927Z,2031.00
2023-05-10T10:46:37.976Z,2048.00
2023-05-10T10:47:38.015Z,2067.00
2023-05-10T10:48:37.997Z,2075.00
2023-05-10T10:49:38.043Z,2079.00
2023-05-10T10:50:38.322Z,2085.00
2023-05-10T10:51:38.506Z,2090.00
2023-05-10T10:52:38.186Z,2098.00
2023-05-10T10:53:38.129Z,2103.00
2023-05-10T10:54:38.153Z,2107.00
2023-05-10T10:55:38.172Z,2121.00
2023-05-10T10:56:38.229Z,2139.00
2023-05-10T10:57:38.514Z,2160.00
2023-05-10T10:58:38.229Z,2175.00
2023-05-10T10:59:38.243Z,2190.00
2023-05-10T11:00:38.293Z,2203.00
2023-05-10T11:01:38.790Z,2223.00
2023-05-10T11:02:38.299Z,2246.00
2023-05-10T11:03:38.317Z,2262.00
2023-05-10T11:04:38.621Z,2275.00
2023-05-10T11:05:38.349Z,2350.00
2023-05-10T11:06:38.385Z,2385.00
2023-05-10T11:07:38.400Z,2344.00
2023-05-10T11:08:38.454Z,2360.00
2023-05-10T11:09:38.518Z,2357.00
2023-05-10T11:10:38.453Z,2347.00
2023-05-10T11:11:38.508Z,2339.00
2023-05-10T11:12:38.510Z,2328.00
2023-05-10T11:13:38.546Z,2321.00
2023-05-10T11:14:38.571Z,2314.00
2023-05-10T11:15:38.605Z,2303.00
2023-05-10T11:16:39.137Z,2300.00
2023-05-10T11:17:38.704Z,2297.00
2023-05-10T11:18:38.753Z,2290.00
2023-05-10T11:19:38.753Z,2291.00
2023-05-10T11:20:38.799Z,2284.00
2023-05-10T11:21:38.843Z,2276.00
2023-05-10T11:22:38.895Z,2275.00
2023-05-10T11:23:38.946Z,2276.00
2023-05-10T11:24:39.089Z,2272.00
2023-05-10T11:25:39.052Z,2269.00
2023-05-10T11:26:39.105Z,2268.00
2023-05-10T11:27:39.153Z,2262.00
2023-05-10T11:28:39.197Z,2261.00
2023-05-10T11:29:39.252Z,2257.00
2023-05-10T11:30:39.336Z,2256.00
2023-05-10T11:31:39.518Z,2251.00
2023-05-10T11:32:39.457Z,2249.00
2023-05-10T11:33:39.488Z,2248.00
2023-05-10T11:34:39.564Z,2249.00
2023-05-10T11:35:41.756Z,2248.00
2023-05-10T11:36:39.616Z,2247.00
2023-05-10T11:37:39.613Z,2242.00
2023-05-10T11:38:39.651Z,2243.00
2023-05-10T11:39:39.603Z,2242.00
2023-05-10T11:40:39.641Z,2243.00
2023-05-10T11:41:41.053Z,2237.00
2023-05-10T11:42:40.018Z,2230.00
2023-05-10T11:43:39.606Z,2226.00
2023-05-10T11:44:39.621Z,2227.00
2023-05-10T11:45:39.619Z,2222.00
2023-05-10T11:46:39.676Z,2221.00
2023-05-10T11:47:42.071Z,2219.00
2023-05-10T11:48:39.628Z,2218.00
2023-05-10T11:49:39.636Z,2213.00
2023-05-10T11:50:39.635Z,2209.00
2023-05-10T11:51:39.640Z,2216.00
2023-05-10T11:52:39.647Z,2216.00
2023-05-10T11:53:39.640Z,2209.00
2023-05-10T11:54:39.632Z,2209.00
2023-05-10T11:55:39.637Z,2212.00
2023-05-10T11:56:39.677Z,2211.00
2023-05-10T11:57:39.653Z,2215.00
2023-05-10T11:58:40.025Z,2212.00
2023-05-10T11:59:41.714Z,2207.00
2023-05-10T12:00:39.666Z,2204.00
2023-05-10T12:01:40.032Z,2212.00
2023-05-10T12:02:39.799Z,2208.00
2023-05-10T12:03:39.882Z,2215.00
2023-05-10T12:04:39.729Z,2210.00
2023-05-10T12:05:41.592Z,2208.00
2023-05-10T12:06:39.780Z,2203.00
2023-05-10T12:07:39.729Z,2198.00
2023-05-10T12:08:39.807Z,2197.00
2023-05-10T12:09:44.159Z,2196.00
2023-05-10T12:10:39.766Z,2197.00
2023-05-10T12:11:42.501Z,2192.00
2023-05-10T12:12:39.805Z,2191.00
2023-05-10T12:13:39.779Z,2190.00
2023-05-10T12:14:39.794Z,2186.00
2023-05-10T12:15:39.795Z,2184.00
2023-05-10T12:16:39.842Z,2183.00
2023-05-10T12:17:41.970Z,2179.00
2023-05-10T12:18:39.833Z,2180.00